createdAt,value
2023-11-30T00:00:29.925Z,45.30
2023-11-30T00:01:33.194Z,47.50
2023-11-30T00:02:35.373Z,44.13
2023-11-30T00:03:38.600Z,47.22
2023-11-30T00:04:40.906Z,45.95
2023-11-30T00:05:44.180Z,47.25
2023-11-30T00:06:46.277Z,43.47
2023-11-30T00:07:48.404Z,47.13
2023-11-30T00:08:51.938Z,45.72
2023-11-30T00:09:54.059Z,44.50
2023-11-30T00:10:58.457Z,42.42
2023-11-30T00:12:00.737Z,44.20
2023-11-30T00:13:03.032Z,44.95
2023-11-30T00:14:06.396Z,44.15
2023-11-30T00:15:09.388Z,42.42
2023-11-30T00:16:12.909Z,47.05
2023-11-30T00:17:15.216Z,43.75
2023-11-30T00:18:17.455Z,45.65
2023-11-30T00:19:20.742Z,49.55
2023-11-30T00:20:22.885Z,43.58
2023-11-30T00:21:26.110Z,43.38
2023-11-30T00:22:28.268Z,40.50
2023-11-30T00:23:33.368Z,49.35
2023-11-30T00:24:35.612Z,47.83
2023-11-30T00:25:39.001Z,48.05
2023-11-30T00:26:43.720Z,46.42
2023-11-30T00:27:47.185Z,44.58
2023-11-30T00:28:49.294Z,41.78
2023-11-30T00:29:52.558Z,44.83
2023-11-30T00:30:54.702Z,47.90
2023-11-30T00:31:56.759Z,46.80
2023-11-30T00:32:59.997Z,51.58
2023-11-30T00:34:02.422Z,53.05
2023-11-30T00:35:06.024Z,47.05
2023-11-30T00:36:09.160Z,52.67
2023-11-30T00:37:12.605Z,46.95
2023-11-30T00:38:14.688Z,46.05
2023-11-30T00:39:17.209Z,54.13
2023-11-30T00:40:20.504Z,51.58
2023-11-30T00:41:22.839Z,45.42
2023-11-30T00:42:27.732Z,47.78
2023-11-30T00:43:29.942Z,40.72
2023-11-30T00:44:33.140Z,47.70
2023-11-30T00:45:35.400Z,43.33
2023-11-30T00:46:38.913Z,48.95
2023-11-30T00:47:42.062Z,44.75
2023-11-30T00:48:44.348Z,43.30
2023-11-30T00:49:47.610Z,43.70
2023-11-30T00:50:49.736Z,41.78
2023-11-30T00:51:51.820Z,37.05
2023-11-30T00:52:54.861Z,35.10
2023-11-30T00:53:57.153Z,38.50
2023-11-30T00:55:00.294Z,38.20
2023-11-30T00:56:02.507Z,44.10
2023-11-30T00:57:06.204Z,40.45
2023-11-30T00:58:10.240Z,39.60
2023-11-30T00:59:12.389Z,47.22
2023-11-30T01:00:16.238Z,48.75
2023-11-30T01:01:18.518Z,49.65
2023-11-30T01:02:21.625Z,51.45
2023-11-30T01:03:23.982Z,52.72
2023-11-30T01:04:27.190Z,52.55
2023-11-30T01:05:29.400Z,52.20
2023-11-30T01:06:32.707Z,52.92
2023-11-30T01:07:34.819Z,54.88
2023-11-30T01:08:38.834Z,54.08
2023-11-30T01:09:40.894Z,48.15
2023-11-30T01:10:45.172Z,54.78
2023-11-30T01:11:48.389Z,55.08
2023-11-30T01:12:51.886Z,52.30
2023-11-30T01:13:55.345Z,48.10
2023-11-30T01:14:58.731Z,48.85
2023-11-30T01:16:00.953Z,46.22
2023-11-30T01:17:04.149Z,52.78
2023-11-30T01:18:06.442Z,48.53
2023-11-30T01:19:08.941Z,43.20
2023-11-30T01:20:12.967Z,47.17
2023-11-30T01:21:15.172Z,40.80
2023-11-30T01:22:19.257Z,40.92
2023-11-30T01:23:22.099Z,38.67
2023-11-30T01:24:25.628Z,36.03
2023-11-30T01:25:27.820Z,35.22
2023-11-30T01:26:31.056Z,33.75
2023-11-30T01:27:33.556Z,33.67
2023-11-30T01:28:36.732Z,38.63
2023-11-30T01:29:40.201Z,35.10
2023-11-30T01:30:42.295Z,33.67
2023-11-30T01:31:45.717Z,34.33
2023-11-30T01:32:48.367Z,37.40
2023-11-30T01:33:51.842Z,33.50
2023-11-30T01:34:54.780Z,38.92
2023-11-30T01:35:57.176Z,31.52
2023-11-30T01:37:00.377Z,32.17
2023-11-30T01:38:03.290Z,38.65
2023-11-30T01:39:06.422Z,35.67
2023-11-30T01:40:10.823Z,32.78
2023-11-30T01:41:14.076Z,36.47
2023-11-30T01:42:16.737Z,35.60
2023-11-30T01:43:20.875Z,35.58
2023-11-30T01:44:22.950Z,35.75
2023-11-30T01:45:27.509Z,35.65
2023-11-30T01:46:29.970Z,37.17
2023-11-30T01:47:33.348Z,32.60
2023-11-30T01:48:35.735Z,38.13
2023-11-30T01:49:39.023Z,31.63
2023-11-30T01:50:42.594Z,33.15
2023-11-30T01:51:45.757Z,33.42
2023-11-30T01:52:48.358Z,31.50
2023-11-30T01:53:51.545Z,31.20
2023-11-30T01:54:54.594Z,35.28
2023-11-30T01:55:57.934Z,35.80
2023-11-30T01:57:00.284Z,31.10
2023-11-30T01:58:04.736Z,35.33
2023-11-30T01:59:08.482Z,31.90
2023-11-30T02:00:12.759Z,37.17
2023-11-30T02:01:17.016Z,32.83
2023-11-30T02:02:20.762Z,33.08
2023-11-30T02:03:26.220Z,34.08
2023-11-30T02:04:31.191Z,33.13
2023-11-30T02:05:33.626Z,37.50
2023-11-30T02:06:36.753Z,35.88
2023-11-30T02:07:39.026Z,32.40
2023-11-30T02:08:42.159Z,35.25
2023-11-30T02:09:44.259Z,37.83
2023-11-30T02:10:47.360Z,37.15
2023-11-30T02:11:51.450Z,39.15
2023-11-30T02:12:53.640Z,35.50
2023-11-30T02:13:55.837Z,37.17
2023-11-30T02:15:00.369Z,32.35
2023-11-30T02:16:02.891Z,37.70
2023-11-30T02:17:07.668Z,36.72
2023-11-30T02:18:09.877Z,37.65
2023-11-30T02:19:13.074Z,32.95
2023-11-30T02:20:15.371Z,30.10
2023-11-30T02:21:19.414Z,31.02
2023-11-30T02:22:22.970Z,30.23
2023-11-30T02:23:26.061Z,32.15
2023-11-30T02:24:28.377Z,27.02
2023-11-30T02:25:31.465Z,30.48
2023-11-30T02:26:33.686Z,28.85
2023-11-30T02:27:36.793Z,25.08
2023-11-30T02:28:38.876Z,22.85
2023-11-30T02:29:42.117Z,27.27
2023-11-30T02:30:46.775Z,29.98
2023-11-30T02:31:49.931Z,30.35
2023-11-30T02:32:52.352Z,41.25
2023-11-30T02:33:55.825Z,35.08
2023-11-30T02:34:57.996Z,29.08
2023-11-30T02:36:00.090Z,26.90
2023-11-30T02:37:03.263Z,30.60
2023-11-30T02:38:06.696Z,26.63
2023-11-30T02:39:10.180Z,36.90
2023-11-30T02:40:13.051Z,37.75
2023-11-30T02:41:17.979Z,33.25
2023-11-30T02:42:20.425Z,37.60
2023-11-30T02:43:23.583Z,38.17
2023-11-30T02:44:25.648Z,43.80
2023-11-30T02:45:29.088Z,39.00
2023-11-30T02:46:31.267Z,37.75
2023-11-30T02:47:34.400Z,44.10
2023-11-30T02:48:37.630Z,45.97
2023-11-30T02:49:40.809Z,45.90
2023-11-30T02:50:42.934Z,44.55
2023-11-30T02:51:46.093Z,43.38
2023-11-30T02:52:49.337Z,40.58
2023-11-30T02:53:53.849Z,41.05
2023-11-30T02:54:55.913Z,38.38
2023-11-30T02:56:01.056Z,49.38
2023-11-30T02:57:04.237Z,39.88
2023-11-30T02:58:07.313Z,41.10
2023-11-30T02:59:09.858Z,37.97
2023-11-30T03:00:12.651Z,39.28
2023-11-30T03:01:15.824Z,41.53
2023-11-30T03:02:18.063Z,38.53
2023-11-30T03:03:22.170Z,38.70
2023-11-30T03:04:24.287Z,34.70
2023-11-30T03:05:27.542Z,39.42
2023-11-30T03:06:29.688Z,39.53
2023-11-30T03:07:32.987Z,42.92
2023-11-30T03:08:35.107Z,40.10
2023-11-30T03:09:38.532Z,35.20
2023-11-30T03:10:41.661Z,38.45
2023-11-30T03:11:43.809Z,39.60
2023-11-30T03:12:46.928Z,39.05
2023-11-30T03:13:49.059Z,44.40
2023-11-30T03:14:52.283Z,38.30
2023-11-30T03:15:54.468Z,42.10
2023-11-30T03:16:58.657Z,48.47
2023-11-30T03:18:00.878Z,47.95
2023-11-30T03:19:17.245Z,44.78
2023-11-30T03:20:19.911Z,46.88
2023-11-30T03:21:23.115Z,48.42
2023-11-30T03:22:25.940Z,49.28
2023-11-30T03:23:29.150Z,51.97
2023-11-30T03:24:31.258Z,45.88
2023-11-30T03:25:37.107Z,50.53
2023-11-30T03:26:39.421Z,47.60
2023-11-30T03:27:42.711Z,49.22
2023-11-30T03:28:45.104Z,57.60
2023-11-30T03:29:48.096Z,48.85
2023-11-30T03:30:50.236Z,51.90
2023-11-30T03:31:53.430Z,51.15
2023-11-30T03:32:55.967Z,48.00
2023-11-30T03:33:58.117Z,59.22
2023-11-30T03:35:01.532Z,59.47
2023-11-30T03:36:04.530Z,56.70
2023-11-30T03:37:07.780Z,79.88
2023-11-30T03:38:09.913Z,59.30
2023-11-30T03:39:13.108Z,63.50
2023-11-30T03:40:15.242Z,77.07
2023-11-30T03:41:19.630Z,78.78
2023-11-30T03:42:21.735Z,78.47
2023-11-30T03:43:24.966Z,64.25
2023-11-30T03:44:27.157Z,71.50
2023-11-30T03:45:35.581Z,74.65
2023-11-30T03:46:38.600Z,69.90
2023-11-30T03:47:41.690Z,62.13
2023-11-30T03:48:44.926Z,51.30
2023-11-30T03:49:48.068Z,47.78
2023-11-30T03:50:50.295Z,53.95
2023-11-30T03:51:53.455Z,51.70
2023-11-30T03:52:55.762Z,52.05
2023-11-30T03:53:58.939Z,62.15
2023-11-30T03:55:00.972Z,53.15
2023-11-30T03:56:04.183Z,52.95
2023-11-30T03:57:07.682Z,60.08
2023-11-30T03:58:10.772Z,63.88
2023-11-30T03:59:12.895Z,65.30
2023-11-30T04:00:17.670Z,57.97
2023-11-30T04:01:24.042Z,68.05
2023-11-30T04:02:27.292Z,59.30
2023-11-30T04:03:30.161Z,58.63
2023-11-30T04:04:33.666Z,55.60
2023-11-30T04:05:35.823Z,59.03
2023-11-30T04:06:39.027Z,79.18
2023-11-30T04:07:41.325Z,74.82
2023-11-30T04:08:44.441Z,67.10
2023-11-30T04:09:47.755Z,66.82
2023-11-30T04:10:50.908Z,66.05
2023-11-30T04:11:53.120Z,44.25
2023-11-30T04:12:57.606Z,56.65
2023-11-30T04:14:06.241Z,56.50
2023-11-30T04:15:10.530Z,60.38
2023-11-30T04:16:15.506Z,36.30
2023-11-30T04:17:18.530Z,37.28
2023-11-30T04:18:22.801Z,33.78
2023-11-30T04:19:25.942Z,32.28
2023-11-30T04:20:28.399Z,25.27
2023-11-30T04:21:32.076Z,30.67
2023-11-30T04:22:34.437Z,25.35
2023-11-30T04:23:36.498Z,28.77
2023-11-30T04:24:39.616Z,27.92
2023-11-30T04:25:41.766Z,26.05
2023-11-30T04:26:44.788Z,27.65
2023-11-30T04:27:46.909Z,26.77
2023-11-30T04:28:51.306Z,27.70
2023-11-30T04:29:53.432Z,28.52
2023-11-30T04:30:58.087Z,27.85
2023-11-30T04:32:00.300Z,28.13
2023-11-30T04:33:04.071Z,30.25
2023-11-30T04:34:07.556Z,26.98
2023-11-30T04:35:10.600Z,26.90
2023-11-30T04:36:15.626Z,27.88
2023-11-30T04:37:17.750Z,25.70
2023-11-30T04:38:21.229Z,29.20
2023-11-30T04:39:23.331Z,28.98
2023-11-30T04:40:26.454Z,27.52
2023-11-30T04:41:28.577Z,26.08
2023-11-30T04:42:34.771Z,27.05
2023-11-30T04:43:38.408Z,27.90
2023-11-30T04:44:44.020Z,26.23
2023-11-30T04:45:46.140Z,26.60
2023-11-30T04:46:49.347Z,25.38
2023-11-30T04:47:51.520Z,26.58
2023-11-30T04:48:54.648Z,26.92
2023-11-30T04:49:56.863Z,26.17
2023-11-30T04:50:59.903Z,26.55
2023-11-30T04:52:02.035Z,26.15
2023-11-30T04:53:05.234Z,24.40
2023-11-30T04:54:07.366Z,26.30
2023-11-30T04:55:11.051Z,27.63
2023-11-30T04:56:13.162Z,28.42
2023-11-30T04:57:16.668Z,27.25
2023-11-30T04:58:18.718Z,28.83
2023-11-30T04:59:21.782Z,26.02
2023-11-30T05:00:25.216Z,24.17
2023-11-30T05:01:28.287Z,25.65
2023-11-30T05:02:30.547Z,23.25
2023-11-30T05:03:34.055Z,28.85
2023-11-30T05:04:38.278Z,26.73
2023-11-30T05:05:41.629Z,25.33
2023-11-30T05:06:43.646Z,25.13
2023-11-30T05:07:46.738Z,28.00
2023-11-30T05:08:49.026Z,23.33
2023-11-30T05:09:52.133Z,24.95
2023-11-30T05:10:54.181Z,24.60
2023-11-30T05:11:57.354Z,23.55
2023-11-30T05:12:59.539Z,25.27
2023-11-30T15:54:31.159Z,62.10
2023-11-30T15:55:35.835Z,56.08
2023-11-30T15:56:38.207Z,59.05
2023-11-30T15:57:41.644Z,60.92
2023-11-30T15:58:43.837Z,69.63
2023-11-30T15:59:46.935Z,71.03
2023-11-30T16:00:49.217Z,57.67
2023-11-30T16:01:52.692Z,71.10
2023-11-30T16:02:54.924Z,66.50
2023-11-30T16:03:58.136Z,78.78
2023-11-30T16:05:00.522Z,78.25
2023-11-30T16:06:04.155Z,82.25
2023-11-30T16:07:06.316Z,68.95
2023-11-30T16:08:09.457Z,80.95
2023-11-30T16:09:13.289Z,79.60
2023-11-30T16:10:17.121Z,75.13
2023-11-30T16:11:20.809Z,63.95
2023-11-30T16:12:23.939Z,70.50
2023-11-30T16:13:26.831Z,66.68
2023-11-30T16:14:28.974Z,59.90
2023-11-30T16:15:32.132Z,57.80
2023-11-30T16:16:35.036Z,50.17
2023-11-30T16:17:38.329Z,51.05
2023-11-30T16:18:40.592Z,47.70
2023-11-30T16:19:43.712Z,50.22
2023-11-30T16:20:45.997Z,52.10
2023-11-30T16:21:52.179Z,47.15
2023-11-30T16:22:54.352Z,41.50
2023-11-30T16:23:57.551Z,41.63
2023-11-30T16:24:59.756Z,44.72
2023-11-30T16:26:02.982Z,53.17
2023-11-30T16:27:06.718Z,42.75
2023-11-30T16:28:10.389Z,40.40
2023-11-30T16:29:12.482Z,40.33
2023-11-30T16:30:15.631Z,39.28
2023-11-30T16:31:18.427Z,42.40
2023-11-30T16:32:20.517Z,48.53
2023-11-30T16:33:25.337Z,42.25
2023-11-30T16:34:32.134Z,44.67
2023-11-30T16:35:35.431Z,63.05
2023-11-30T16:36:37.785Z,45.70
2023-11-30T16:37:39.946Z,44.33
2023-11-30T16:38:43.038Z,43.30
2023-11-30T16:39:47.159Z,47.60
2023-11-30T16:40:50.303Z,42.03
2023-11-30T16:41:52.478Z,40.47
2023-11-30T16:42:57.371Z,47.55
2023-11-30T16:43:59.591Z,49.45
2023-11-30T16:45:03.374Z,49.15
2023-11-30T16:46:07.765Z,46.50
2023-11-30T16:47:13.611Z,39.88
2023-11-30T16:48:17.035Z,39.33
2023-11-30T16:49:20.188Z,41.45
2023-11-30T16:50:22.283Z,38.50
2023-11-30T16:51:25.501Z,45.65
2023-11-30T16:52:27.789Z,41.30
2023-11-30T16:53:30.927Z,41.83
2023-11-30T16:54:33.209Z,41.60
2023-11-30T16:55:36.532Z,43.85
2023-11-30T16:56:40.668Z,40.90
2023-11-30T16:57:43.984Z,44.92
2023-11-30T16:58:47.547Z,47.85
2023-11-30T16:59:50.681Z,43.95
2023-11-30T17:00:52.981Z,40.00
2023-11-30T17:01:56.224Z,36.88
2023-11-30T17:02:58.511Z,38.08
2023-11-30T17:04:02.002Z,32.10
2023-11-30T17:05:05.001Z,45.05
2023-11-30T17:06:08.551Z,43.05
2023-11-30T17:07:10.632Z,39.83
2023-11-30T17:08:13.923Z,45.28
2023-11-30T17:09:16.124Z,36.10
2023-11-30T17:10:19.259Z,38.13
2023-11-30T17:11:21.399Z,36.28
2023-11-30T17:12:24.541Z,36.53
2023-11-30T17:13:27.295Z,40.28
2023-11-30T17:14:31.823Z,34.40
2023-11-30T17:15:34.346Z,35.00
2023-11-30T17:16:39.863Z,36.60
2023-11-30T17:17:46.440Z,54.20
2023-11-30T17:18:49.601Z,50.70
2023-11-30T17:19:51.750Z,38.72
2023-11-30T17:20:55.451Z,41.97
2023-11-30T17:21:57.649Z,42.70
2023-11-30T17:23:00.752Z,42.72
2023-11-30T17:24:04.134Z,37.40
2023-11-30T17:25:08.095Z,45.92
2023-11-30T17:26:10.173Z,46.70
2023-11-30T17:27:13.986Z,51.55
2023-11-30T17:28:16.114Z,36.70
2023-11-30T17:29:19.312Z,46.33
2023-11-30T17:30:23.054Z,55.42
2023-11-30T17:31:26.254Z,40.63
2023-11-30T17:32:28.548Z,40.45
2023-11-30T17:33:31.813Z,37.55
2023-11-30T17:34:34.364Z,49.05
2023-11-30T17:35:37.598Z,38.72
2023-11-30T17:36:39.929Z,37.63
2023-11-30T17:37:43.348Z,33.78
2023-11-30T17:38:45.454Z,35.45
2023-11-30T17:39:48.912Z,42.70
2023-11-30T17:40:50.969Z,41.25
2023-11-30T17:41:54.247Z,52.50
2023-11-30T17:42:56.461Z,39.60
2023-11-30T17:43:59.591Z,54.65
2023-11-30T17:45:01.764Z,39.10
2023-11-30T17:46:09.237Z,38.67
2023-11-30T17:47:11.496Z,43.95
2023-11-30T17:48:14.714Z,33.08
2023-11-30T17:49:21.220Z,47.25
2023-11-30T17:50:25.472Z,46.65
2023-11-30T17:51:27.825Z,40.15
2023-11-30T17:52:31.176Z,42.20
2023-11-30T17:53:33.353Z,47.50
2023-11-30T17:54:36.946Z,46.60
2023-11-30T17:55:39.249Z,52.20
2023-11-30T17:56:42.442Z,50.97
2023-11-30T17:57:44.948Z,52.03
2023-11-30T17:58:48.542Z,53.10
2023-11-30T17:59:50.838Z,52.20
2023-11-30T18:00:56.118Z,87.97
2023-11-30T18:01:59.989Z,103.45
2023-11-30T18:03:02.313Z,64.68
2023-11-30T18:04:05.824Z,77.60
2023-11-30T18:05:09.615Z,72.28
2023-11-30T18:06:13.159Z,79.57
2023-11-30T18:07:15.464Z,88.75
2023-11-30T18:08:17.729Z,80.90
2023-11-30T18:09:21.119Z,80.03
2023-11-30T18:10:23.303Z,74.07
2023-11-30T18:11:26.657Z,80.25
2023-11-30T18:12:28.912Z,77.15
2023-11-30T18:13:32.325Z,81.55
2023-11-30T18:14:34.560Z,82.75
2023-11-30T18:15:40.081Z,75.22
2023-11-30T18:16:42.335Z,77.75
2023-11-30T18:17:47.167Z,77.78
2023-11-30T18:18:49.650Z,76.13
2023-11-30T18:19:52.888Z,78.55
2023-11-30T18:20:55.128Z,91.80
2023-11-30T18:21:58.790Z,85.40
2023-11-30T18:23:00.937Z,88.47
2023-11-30T18:24:04.384Z,101.00
2023-11-30T18:25:07.258Z,87.88
2023-11-30T18:26:10.378Z,100.85
2023-11-30T18:27:12.644Z,115.63
2023-11-30T18:28:15.795Z,105.28
2023-11-30T18:29:17.888Z,121.82
2023-11-30T18:30:21.068Z,106.00
2023-11-30T18:31:24.197Z,111.22
2023-11-30T18:32:27.543Z,113.90
2023-11-30T21:13:00.369Z,189.45
2023-11-30T21:14:02.675Z,199.85
2023-11-30T21:15:06.646Z,191.30
2023-11-30T21:16:09.459Z,185.68
2023-11-30T21:17:12.649Z,226.52
2023-11-30T21:18:14.846Z,198.75
2023-11-30T21:19:18.512Z,178.82
2023-11-30T21:20:22.148Z,177.27
2023-11-30T21:21:25.357Z,151.52
2023-11-30T21:22:27.667Z,143.70
2023-11-30T21:23:31.054Z,152.05
2023-11-30T21:24:35.377Z,159.43
2023-11-30T21:25:38.547Z,174.43
2023-11-30T21:26:40.698Z,161.40
2023-11-30T21:27:43.898Z,165.77
2023-11-30T21:28:47.515Z,165.43
2023-11-30T21:29:55.233Z,196.20
2023-11-30T21:30:57.445Z,196.32
2023-11-30T21:32:00.765Z,218.65
2023-11-30T21:33:02.985Z,206.63
2023-11-30T21:34:06.400Z,207.48
2023-11-30T21:35:09.324Z,202.93
2023-11-30T21:36:14.537Z,192.65
2023-11-30T21:37:16.715Z,191.43
2023-11-30T21:38:19.926Z,196.95
2023-11-30T21:39:22.232Z,196.35
2023-11-30T21:40:25.707Z,186.75
2023-11-30T21:41:27.960Z,146.07
2023-11-30T21:42:31.179Z,119.82
2023-11-30T21:43:33.351Z,117.28
2023-11-30T21:44:40.256Z,125.85
2023-11-30T21:45:44.014Z,115.65
2023-11-30T21:46:47.208Z,130.60
2023-11-30T21:47:49.456Z,133.07
2023-11-30T21:48:53.165Z,114.63
2023-11-30T21:49:55.523Z,114.00
2023-11-30T21:50:58.670Z,120.53
2023-11-30T21:52:01.304Z,116.40
2023-11-30T21:53:05.016Z,116.50
2023-11-30T21:54:07.614Z,113.22
2023-11-30T21:55:10.951Z,113.07
2023-11-30T21:56:13.083Z,114.97
2023-11-30T21:57:16.315Z,110.50
2023-11-30T21:58:19.696Z,106.57
2023-11-30T21:59:21.832Z,113.47
2023-11-30T22:00:26.632Z,113.15
2023-11-30T22:01:29.083Z,100.65
2023-11-30T22:02:32.410Z,118.68
2023-11-30T22:03:34.636Z,118.80
2023-11-30T22:04:38.040Z,101.20
2023-11-30T22:05:40.478Z,98.03
2023-11-30T22:06:43.767Z,109.45
2023-11-30T22:07:47.677Z,116.30
2023-11-30T22:08:52.042Z,108.82
2023-11-30T22:09:55.233Z,112.28
2023-11-30T22:10:57.781Z,98.32
2023-11-30T22:12:04.329Z,122.40
2023-11-30T22:13:06.531Z,102.78
2023-11-30T22:14:09.683Z,105.38
2023-11-30T22:15:11.796Z,99.32
2023-11-30T22:16:23.627Z,97.75
2023-11-30T22:17:31.617Z,99.38
2023-11-30T22:18:34.860Z,104.78
2023-11-30T22:19:37.068Z,96.63
2023-11-30T22:20:45.320Z,112.13
2023-11-30T22:21:47.489Z,107.43
2023-11-30T22:22:50.593Z,98.65
2023-11-30T22:23:52.833Z,118.03
2023-11-30T22:24:55.991Z,100.88
2023-11-30T22:26:03.969Z,97.90
2023-11-30T22:27:08.138Z,95.68
2023-11-30T22:28:10.393Z,95.78
2023-11-30T22:29:13.552Z,109.53
2023-11-30T22:30:16.002Z,112.43
2023-11-30T22:31:20.760Z,97.38
2023-11-30T22:32:22.898Z,113.82
2023-11-30T22:33:26.282Z,95.95
2023-11-30T22:34:28.565Z,101.35
2023-11-30T22:35:30.786Z,106.38
2023-11-30T22:36:34.090Z,118.80
2023-11-30T22:37:36.348Z,112.18
2023-11-30T22:38:45.386Z,124.43
2023-11-30T22:39:48.485Z,107.93
2023-11-30T22:40:51.971Z,115.38
2023-11-30T22:41:55.356Z,120.38
2023-11-30T22:42:58.604Z,110.95
2023-11-30T22:44:00.801Z,119.85
2023-11-30T22:45:04.442Z,122.13
2023-11-30T22:46:06.837Z,125.30
2023-11-30T22:47:11.389Z,130.68
2023-11-30T22:48:13.600Z,146.35
2023-11-30T22:49:17.452Z,148.30
2023-11-30T22:50:19.802Z,132.43
2023-11-30T22:51:23.704Z,132.52
2023-11-30T22:52:27.033Z,139.18
2023-11-30T22:53:29.249Z,135.48
2023-11-30T22:54:33.016Z,130.18
2023-11-30T22:55:35.438Z,126.20
2023-11-30T22:56:38.618Z,108.18
2023-11-30T22:57:40.806Z,96.65
2023-11-30T22:58:43.144Z,108.75
2023-11-30T22:59:46.508Z,103.10
2023-11-30T23:00:49.030Z,111.07
2023-11-30T23:01:52.380Z,119.28
2023-11-30T23:02:56.203Z,113.00
2023-11-30T23:04:00.088Z,108.50
2023-11-30T23:05:04.326Z,104.75
2023-11-30T23:06:08.056Z,119.93
2023-11-30T23:07:10.365Z,126.43
2023-11-30T23:08:13.593Z,107.65
2023-11-30T23:09:15.846Z,112.13
2023-11-30T23:10:20.687Z,101.82
2023-11-30T23:11:22.856Z,108.38
2023-11-30T23:12:26.026Z,103.72
2023-11-30T23:13:28.692Z,104.43
2023-11-30T23:14:31.900Z,110.50
2023-11-30T23:15:34.086Z,114.15
2023-11-30T23:16:38.140Z,126.80
2023-11-30T23:17:40.413Z,132.10
2023-11-30T23:18:44.022Z,116.75
2023-11-30T23:19:47.240Z,116.22
2023-11-30T23:20:49.642Z,120.78
2023-11-30T23:21:52.841Z,121.30
2023-11-30T23:22:54.978Z,136.07
2023-11-30T23:23:58.200Z,133.07
2023-11-30T23:25:00.476Z,128.13
2023-11-30T23:26:03.659Z,126.35
2023-11-30T23:27:06.014Z,130.35
2023-11-30T23:28:09.221Z,115.65
2023-11-30T23:29:11.343Z,137.63
2023-11-30T23:30:14.895Z,128.98
2023-11-30T23:31:17.296Z,107.38
2023-11-30T23:32:20.494Z,132.35
2023-11-30T23:33:22.628Z,134.07
2023-11-30T23:34:27.115Z,129.40
2023-11-30T23:35:29.655Z,132.57
2023-11-30T23:36:33.194Z,116.13
2023-11-30T23:37:35.421Z,135.38
2023-11-30T23:38:38.734Z,127.32
2023-11-30T23:39:40.889Z,119.18
2023-11-30T23:40:44.068Z,127.70
2023-11-30T23:41:46.251Z,124.97
2023-11-30T23:42:49.424Z,122.47
2023-11-30T23:43:51.572Z,129.80
2023-11-30T23:44:54.729Z,125.30
2023-11-30T23:45:57.044Z,133.68
2023-11-30T23:46:59.257Z,141.88
2023-11-30T23:48:02.514Z,150.48
2023-11-30T23:49:04.789Z,152.00
2023-11-30T23:50:10.396Z,155.63
2023-11-30T23:51:12.609Z,156.15
2023-11-30T23:52:16.385Z,168.27
2023-11-30T23:53:19.969Z,128.75
2023-11-30T23:54:23.141Z,147.52
2023-11-30T23:55:25.353Z,139.15
2023-11-30T23:56:28.551Z,146.73
2023-11-30T23:57:31.655Z,158.85
2023-11-30T23:58:35.038Z,134.82
2023-11-30T23:59:37.368Z,145.50
